Time;durP1;ratioP1;P1;durP2;ratioP2;P2;SDS_P1;SDS_P2;PMS_P1;PMS_P2;Temp;Humidity;BMP_temperature;BMP_pressure;BME280_temperature;BME280_humidity;BME280_pressure;Samples;Min_cycle;Max_cycle;Signal;HPM_P1;HPM_P2
2021/09/30 00:02:24;;;;;;;3.17;0.77;;;10.50;99.90;;;;;;5038659;28;20489;-75
2021/09/30 00:04:50;;;;;;;3.28;0.73;;;10.50;99.90;;;;;;5038882;28;20033;-74
2021/09/30 00:07:15;;;;;;;0.55;0.52;;;10.50;99.90;;;;;;5037792;28;20108;-74
2021/09/30 00:09:44;;;;;;;1.55;0.60;;;10.50;99.90;;;;;;5035697;28;20310;-74
2021/09/30 00:12:15;;;;;;;3.47;0.70;;;10.40;99.90;;;;;;5039501;28;20030;-73
2021/09/30 00:14:49;;;;;;;2.50;0.80;;;10.40;99.90;;;;;;5037979;28;20036;-75
2021/09/30 00:47:15;;;;;;;4.10;0.70;;;10.10;99.90;;;;;;5038084;28;20421;-76
2021/09/30 00:52:31;;;;;;;0.98;0.50;;;10.10;99.90;;;;;;5034997;28;20026;-75
2021/09/30 00:55:35;;;;;;;1.90;0.70;;;10.10;99.90;;;;;;5040784;28;20397;-75
2021/09/30 02:38:57;;;;;;;2.03;1.00;;;9.40;99.90;;;;;;5032225;28;20022;-76
2021/09/30 03:00:01;;;;;;;14.73;1.10;;;9.20;99.90;;;;;;5035915;28;20040;-74
2021/09/30 03:02:28;;;;;;;1.67;1.33;;;9.20;99.90;;;;;;5052958;28;20021;-74
2021/09/30 03:04:55;;;;;;;1.77;1.02;;;9.20;99.90;;;;;;5059021;28;20033;-74
2021/09/30 03:07:21;;;;;;;1.30;0.80;;;9.10;99.90;;;;;;5060046;28;20033;-75
2021/09/30 03:09:48;;;;;;;4.72;1.15;;;9.20;99.90;;;;;;5058336;28;20069;-74
2021/09/30 03:15:05;;;;;;;2.42;0.90;;;9.10;99.90;;;;;;5057503;28;20029;-73
2021/09/30 03:17:44;;;;;;;2.30;0.60;;;9.10;99.90;;;;;;5056148;28;20025;-73
2021/09/30 03:20:32;;;;;;;3.53;1.08;;;9.00;99.90;;;;;;5056123;28;20440;-74
2021/09/30 03:23:04;;;;;;;1.50;0.70;;;8.90;99.90;;;;;;5056401;28;20017;-74
2021/09/30 03:25:31;;;;;;;1.60;0.75;;;8.90;99.90;;;;;;5057224;28;20552;-73
2021/09/30 03:27:57;;;;;;;1.90;0.77;;;9.00;99.90;;;;;;5056193;28;20389;-72
2021/09/30 03:30:27;;;;;;;4.38;1.00;;;8.90;99.90;;;;;;5077617;28;20031;-72
2021/09/30 03:32:53;;;;;;;3.97;1.08;;;8.90;99.90;;;;;;5080790;28;20032;-72
2021/09/30 03:35:20;;;;;;;4.07;0.90;;;8.90;99.90;;;;;;5069439;28;20091;-73
2021/09/30 03:37:46;;;;;;;1.73;0.80;;;8.80;99.90;;;;;;5056452;28;20025;-73
2021/09/30 03:40:12;;;;;;;2.03;0.88;;;8.70;99.90;;;;;;5055683;28;20040;-74
2021/09/30 03:42:37;;;;;;;1.17;0.82;;;8.70;99.90;;;;;;5054236;28;20021;-74
2021/09/30 03:45:04;;;;;;;3.83;1.05;;;8.70;99.90;;;;;;5054154;28;20024;-74
2021/09/30 03:47:30;;;;;;;4.15;1.10;;;8.60;99.90;;;;;;5055130;28;20032;-74
2021/09/30 03:49:56;;;;;;;3.42;1.08;;;8.60;99.90;;;;;;5055338;28;20021;-73
2021/09/30 03:52:30;;;;;;;2.10;0.80;;;8.60;99.90;;;;;;5055735;28;20052;-73
2021/09/30 03:55:19;;;;;;;4.03;1.13;;;8.70;99.90;;;;;;5055833;28;20063;-73
2021/09/30 04:00:25;;;;;;;3.60;1.02;;;8.60;99.90;;;;;;5072232;28;20060;-73
2021/09/30 04:02:50;;;;;;;2.53;0.95;;;8.60;99.90;;;;;;5067137;28;20416;-73
2021/09/30 04:05:16;;;;;;;4.43;1.15;;;8.60;99.90;;;;;;5069236;28;20111;-73
2021/09/30 04:07:41;;;;;;;2.42;0.80;;;8.60;99.90;;;;;;5075818;28;20037;-74
2021/09/30 04:10:07;;;;;;;8.05;1.00;;;8.50;99.90;;;;;;5060839;28;20025;-75
2021/09/30 04:12:33;;;;;;;3.22;1.20;;;8.40;99.90;;;;;;5057107;28;20041;-73
2021/09/30 04:14:58;;;;;;;2.58;1.00;;;8.30;99.90;;;;;;5056230;28;20037;-72
2021/09/30 04:17:24;;;;;;;3.97;1.42;;;8.40;99.90;;;;;;5056465;28;20025;-73
2021/09/30 04:19:50;;;;;;;4.03;1.10;;;8.40;99.90;;;;;;5055751;28;20389;-72
2021/09/30 04:22:15;;;;;;;5.55;1.58;;;8.40;99.90;;;;;;5054998;28;20032;-74
2021/09/30 04:24:42;;;;;;;6.32;0.95;;;8.40;99.90;;;;;;5055205;28;20049;-73
2021/09/30 04:27:08;;;;;;;4.93;1.00;;;8.40;99.90;;;;;;5053798;28;20475;-74
2021/09/30 04:29:33;;;;;;;2.35;1.05;;;8.40;99.90;;;;;;5054712;28;20045;-72
2021/09/30 04:31:59;;;;;;;2.35;1.33;;;8.40;99.90;;;;;;5054880;28;20385;-72
2021/09/30 04:34:25;;;;;;;3.35;1.38;;;8.50;99.90;;;;;;5055247;28;20025;-74
2021/09/30 04:36:50;;;;;;;3.45;1.30;;;8.50;99.90;;;;;;5054742;28;20567;-73
2021/09/30 04:39:16;;;;;;;6.85;2.00;;;8.40;99.90;;;;;;5054411;28;20028;-74
2021/09/30 04:41:44;;;;;;;3.22;1.77;;;8.30;99.90;;;;;;5054340;28;20100;-74
2021/09/30 04:44:13;;;;;;;2.80;1.30;;;8.30;99.90;;;;;;5053207;28;20021;-74
2021/09/30 04:46:38;;;;;;;7.47;1.17;;;8.30;99.90;;;;;;5054419;28;20028;-74
2021/09/30 04:49:04;;;;;;;1.80;1.30;;;8.20;99.90;;;;;;5053896;28;20032;-73
2021/09/30 04:51:29;;;;;;;6.50;1.77;;;8.20;99.90;;;;;;5053007;28;20025;-73
2021/09/30 04:53:55;;;;;;;2.05;1.27;;;8.30;99.90;;;;;;5054412;28;20032;-72
2021/09/30 04:56:21;;;;;;;3.05;1.42;;;8.30;99.90;;;;;;5055028;28;20392;-73
2021/09/30 04:58:47;;;;;;;2.67;1.17;;;8.40;99.90;;;;;;5054217;28;20029;-73
2021/09/30 05:01:12;;;;;;;2.00;0.98;;;8.50;99.90;;;;;;5054341;28;20025;-72
2021/09/30 05:03:38;;;;;;;4.40;0.98;;;8.50;99.90;;;;;;5054166;28;20033;-73
2021/09/30 05:06:04;;;;;;;5.63;1.00;;;8.40;99.90;;;;;;5054649;28;20485;-73
2021/09/30 05:08:33;;;;;;;3.25;1.05;;;8.40;99.90;;;;;;5053851;28;20031;-73
2021/09/30 05:11:03;;;;;;;7.30;1.90;;;8.50;99.90;;;;;;5054040;28;20021;-73
2021/09/30 05:16:24;;;;;;;4.18;1.50;;;8.20;99.90;;;;;;5045371;28;20021;-73
2021/09/30 05:18:54;;;;;;;7.65;3.90;;;8.20;99.90;;;;;;5053561;28;20119;-73
2021/09/30 05:21:20;;;;;;;5.45;1.73;;;8.20;99.90;;;;;;5053253;28;20028;-73
2021/09/30 05:23:47;;;;;;;6.13;1.80;;;8.20;99.90;;;;;;5053729;28;20021;-74
2021/09/30 05:26:13;;;;;;;7.40;2.47;;;8.10;99.90;;;;;;5052416;28;20121;-74
2021/09/30 05:28:39;;;;;;;9.40;1.50;;;8.10;99.90;;;;;;5055431;28;20056;-73
2021/09/30 05:31:04;;;;;;;2.75;1.38;;;8.10;99.90;;;;;;5058303;28;20021;-75
2021/09/30 05:33:30;;;;;;;3.22;1.02;;;8.10;99.90;;;;;;5059005;28;20365;-73
2021/09/30 05:35:55;;;;;;;5.93;1.42;;;8.10;99.90;;;;;;5054111;28;20021;-74
2021/09/30 05:38:21;;;;;;;4.25;1.40;;;8.20;99.90;;;;;;5053981;28;20079;-74
2021/09/30 05:40:50;;;;;;;4.15;1.48;;;8.20;99.90;;;;;;5053256;28;20029;-73
2021/09/30 05:43:31;;;;;;;2.63;1.63;;;8.20;99.90;;;;;;5053152;28;20056;-73
2021/09/30 05:45:58;;;;;;;3.05;1.55;;;8.30;99.90;;;;;;5051710;28;20048;-74
2021/09/30 05:48:25;;;;;;;5.68;2.08;;;8.30;99.90;;;;;;5052587;28;20072;-74
2021/09/30 05:50:51;;;;;;;10.55;3.70;;;8.30;99.90;;;;;;5051764;28;20027;-74
2021/09/30 05:53:17;;;;;;;2.65;1.20;;;8.40;99.90;;;;;;5052046;28;20021;-74
2021/09/30 05:55:44;;;;;;;8.82;1.40;;;8.40;99.90;;;;;;5053806;28;20448;-72
2021/09/30 05:58:09;;;;;;;4.15;1.90;;;8.40;99.90;;;;;;5053512;28;20112;-72
2021/09/30 06:14:13;;;;;;;3.15;1.40;;;8.90;99.90;;;;;;5052769;28;19915;-72
2021/09/30 06:16:45;;;;;;;2.92;1.30;;;9.00;99.90;;;;;;5053080;28;20492;-73
2021/09/30 06:19:13;;;;;;;2.22;1.20;;;9.00;99.90;;;;;;5051663;28;20033;-74
2021/09/30 06:21:40;;;;;;;3.92;1.58;;;9.10;99.90;;;;;;5065386;28;20108;-74
2021/09/30 06:24:07;;;;;;;3.38;1.00;;;9.10;99.90;;;;;;5053841;28;20027;-73
2021/09/30 06:26:33;;;;;;;7.03;1.95;;;9.10;99.90;;;;;;5055323;28;20017;-75
2021/09/30 06:28:59;;;;;;;4.13;1.80;;;9.20;99.90;;;;;;5052381;28;20040;-73
2021/09/30 06:31:25;;;;;;;1.85;1.10;;;9.30;99.90;;;;;;5052237;28;20474;-73
2021/09/30 06:33:52;;;;;;;4.97;1.25;;;9.40;99.90;;;;;;5051804;28;20509;-74
2021/09/30 06:36:18;;;;;;;4.57;1.20;;;9.50;99.90;;;;;;5052735;28;20017;-74
2021/09/30 06:38:43;;;;;;;4.25;1.30;;;9.60;99.90;;;;;;5051122;28;20021;-75
2021/09/30 06:41:09;;;;;;;1.90;1.35;;;9.60;99.90;;;;;;5052673;28;20121;-74
2021/09/30 06:43:35;;;;;;;3.60;1.20;;;9.70;99.90;;;;;;5052437;28;20433;-73
2021/09/30 06:46:00;;;;;;;3.25;1.45;;;9.80;99.90;;;;;;5052428;28;20036;-73
2021/09/30 06:48:27;;;;;;;5.47;1.35;;;9.90;99.90;;;;;;5051366;28;20056;-73
2021/09/30 06:50:53;;;;;;;4.30;1.10;;;9.90;99.90;;;;;;5054249;28;20085;-73
2021/09/30 06:53:19;;;;;;;4.07;2.08;;;10.00;99.90;;;;;;5054796;28;20479;-74
2021/09/30 06:55:45;;;;;;;2.03;1.13;;;10.10;99.90;;;;;;5052485;28;20053;-73
2021/09/30 06:58:11;;;;;;;6.75;1.58;;;10.20;99.90;;;;;;5051090;28;20025;-75
2021/09/30 07:00:41;;;;;;;4.03;1.02;;;10.30;99.90;;;;;;5051497;28;20114;-73
2021/09/30 07:03:08;;;;;;;8.38;1.33;;;10.30;99.90;;;;;;5052403;28;20511;-73
2021/09/30 07:05:34;;;;;;;1.92;1.33;;;10.40;99.90;;;;;;5051157;28;20033;-74
2021/09/30 07:08:01;;;;;;;2.95;1.05;;;10.50;99.90;;;;;;5050873;28;20124;-73
2021/09/30 07:10:27;;;;;;;3.92;0.95;;;10.60;99.90;;;;;;5052106;28;20025;-72
2021/09/30 07:12:53;;;;;;;2.83;0.95;;;10.60;99.90;;;;;;5052074;28;20281;-74
2021/09/30 07:15:18;;;;;;;5.45;1.08;;;10.70;99.90;;;;;;5058985;28;20021;-75
2021/09/30 07:17:44;;;;;;;8.70;1.35;;;10.80;99.90;;;;;;5055613;28;20029;-76
2021/09/30 07:20:10;;;;;;;4.18;0.70;;;11.00;99.90;;;;;;5052821;28;20105;-72
2021/09/30 07:22:36;;;;;;;3.33;0.90;;;11.10;99.90;;;;;;5064937;28;20033;-73
2021/09/30 07:25:02;;;;;;;9.15;1.52;;;11.20;99.90;;;;;;5066105;28;20033;-73
2021/09/30 07:27:28;;;;;;;1.95;0.90;;;11.30;99.90;;;;;;5066454;28;20033;-72
2021/09/30 07:29:53;;;;;;;3.03;0.90;;;11.40;99.90;;;;;;5056623;28;20017;-73
2021/09/30 07:32:20;;;;;;;4.65;0.85;;;11.50;99.90;;;;;;5059634;28;20119;-73
2021/09/30 07:34:46;;;;;;;2.15;0.85;;;11.60;99.90;;;;;;5069825;28;20021;-73
2021/09/30 07:37:12;;;;;;;4.15;0.93;;;11.60;99.90;;;;;;5065644;28;20025;-72
2021/09/30 07:39:38;;;;;;;3.90;0.77;;;11.70;99.90;;;;;;5060603;28;20047;-73
2021/09/30 07:42:03;;;;;;;2.85;0.77;;;11.70;99.90;;;;;;5056530;28;20170;-73
2021/09/30 07:44:32;;;;;;;3.70;1.20;;;11.80;99.90;;;;;;5054695;28;20385;-73
2021/09/30 07:46:58;;;;;;;5.40;1.00;;;11.90;99.90;;;;;;5057278;28;20048;-73
2021/09/30 07:49:24;;;;;;;2.95;1.00;;;11.90;99.90;;;;;;5060042;28;20017;-73
2021/09/30 07:51:50;;;;;;;4.50;0.90;;;12.00;99.90;;;;;;5055285;28;20021;-74
2021/09/30 07:54:15;;;;;;;4.28;0.90;;;12.20;99.90;;;;;;5057450;28;20025;-74
2021/09/30 07:56:41;;;;;;;1.92;0.65;;;12.40;99.90;;;;;;5079205;28;20073;-74
2021/09/30 07:59:07;;;;;;;1.98;0.88;;;12.40;99.90;;;;;;5079672;28;20033;-72
2021/09/30 08:01:32;;;;;;;4.45;0.90;;;12.50;99.90;;;;;;5071450;28;20029;-73
2021/09/30 08:03:59;;;;;;;3.42;1.13;;;12.70;99.90;;;;;;5057061;28;20020;-74
2021/09/30 08:06:25;;;;;;;2.15;1.15;;;12.70;99.90;;;;;;5054429;28;20366;-73
2021/09/30 08:08:51;;;;;;;2.47;0.70;;;12.80;99.90;;;;;;5062060;28;20036;-72
2021/09/30 08:11:17;;;;;;;1.33;0.73;;;12.80;99.90;;;;;;5066436;28;20429;-73
2021/09/30 08:13:42;;;;;;;2.28;0.50;;;12.90;99.90;;;;;;5059468;28;20055;-73
2021/09/30 08:16:08;;;;;;;3.10;0.77;;;12.80;99.90;;;;;;5057073;28;20076;-72
2021/09/30 08:18:34;;;;;;;3.28;1.30;;;12.90;99.90;;;;;;5055933;28;20056;-74
2021/09/30 08:21:00;;;;;;;1.17;0.60;;;13.20;99.90;;;;;;5056051;28;20040;-74
2021/09/30 08:23:25;;;;;;;1.65;0.70;;;13.20;99.90;;;;;;5054783;28;20078;-74
2021/09/30 08:25:51;;;;;;;3.05;0.65;;;13.20;99.90;;;;;;5055305;28;20024;-74
2021/09/30 08:28:20;;;;;;;3.17;0.63;;;13.30;99.90;;;;;;5054630;28;20036;-72
2021/09/30 08:30:46;;;;;;;2.33;0.52;;;13.10;99.90;;;;;;5054691;28;20067;-75
2021/09/30 08:33:12;;;;;;;4.13;0.55;;;13.00;99.90;;;;;;5054725;28;20025;-75
2021/09/30 08:35:39;;;;;;;3.80;0.63;;;13.10;99.90;;;;;;5054856;28;20020;-73
2021/09/30 08:38:05;;;;;;;2.65;0.60;;;13.20;99.90;;;;;;5054862;28;20079;-72
2021/09/30 08:40:31;;;;;;;5.03;1.42;;;13.10;99.90;;;;;;5055599;28;20349;-73
2021/09/30 08:42:57;;;;;;;2.13;0.55;;;13.20;99.90;;;;;;5055337;28;20041;-72
2021/09/30 08:45:23;;;;;;;3.53;0.82;;;13.20;99.90;;;;;;5055416;28;20033;-74
2021/09/30 08:48:02;;;;;;;2.00;0.68;;;13.40;99.90;;;;;;5055069;28;20064;-72
2021/09/30 08:50:29;;;;;;;1.77;0.80;;;13.30;99.90;;;;;;5054570;28;20480;-73
2021/09/30 08:52:55;;;;;;;2.72;0.50;;;13.50;99.90;;;;;;5053239;28;20074;-73
2021/09/30 08:55:21;;;;;;;2.35;0.55;;;13.60;99.90;;;;;;5054586;28;20013;-73
2021/09/30 08:57:51;;;;;;;3.42;0.57;;;13.70;99.90;;;;;;5052868;28;20024;-72
2021/09/30 09:00:19;;;;;;;3.88;0.68;;;13.80;99.90;;;;;;5054265;28;20485;-73
2021/09/30 09:02:49;;;;;;;3.70;0.70;;;13.80;99.90;;;;;;5054318;28;20024;-73
2021/09/30 09:05:16;;;;;;;2.42;0.90;;;13.90;99.90;;;;;;5056451;28;20114;-74
2021/09/30 09:07:59;;;;;;;2.20;0.50;;;13.90;99.90;;;;;;5070561;28;20029;-72
2021/09/30 09:10:31;;;;;;;3.33;0.68;;;13.90;99.90;;;;;;5056705;28;20483;-74
2021/09/30 09:13:14;;;;;;;3.22;0.60;;;13.90;99.90;;;;;;5082206;22;20531;-72
2021/09/30 09:15:59;;;;;;;1.70;0.50;;;13.80;99.90;;;;;;5057252;28;20040;-73
2021/09/30 09:18:28;;;;;;;2.70;0.70;;;13.80;99.90;;;;;;5056557;28;20407;-75
2021/09/30 09:21:09;;;;;;;3.85;0.50;;;14.00;99.90;;;;;;5055304;28;20031;-74
2021/09/30 09:23:51;;;;;;;1.58;0.40;;;14.30;99.90;;;;;;5055920;28;20049;-72
2021/09/30 09:26:19;;;;;;;1.10;0.80;;;14.40;99.90;;;;;;5056339;28;20029;-74
2021/09/30 09:29:09;;;;;;;4.28;0.82;;;14.40;99.90;;;;;;5056560;28;20032;-74
2021/09/30 09:31:45;;;;;;;3.60;0.55;;;14.30;99.90;;;;;;5056347;28;20023;-74
2021/09/30 09:34:31;;;;;;;2.00;0.73;;;14.40;99.90;;;;;;5056607;28;20029;-75
2021/09/30 09:37:27;;;;;;;1.50;0.50;;;14.70;99.90;;;;;;5057023;28;20017;-75
2021/09/30 09:39:53;;;;;;;1.98;0.60;;;14.70;99.90;;;;;;5055385;28;20472;-74
2021/09/30 09:42:24;;;;;;;0.95;0.30;;;14.80;99.40;;;;;;5056613;28;20052;-74
2021/09/30 09:44:53;;;;;;;;;;;15.00;98.00;;;;;;5057158;28;20025;-74
2021/09/30 09:47:38;;;;;;;0.77;0.40;;;14.90;96.90;;;;;;5057216;28;19935;-74
2021/09/30 09:50:22;;;;;;;1.58;0.52;;;14.80;96.30;;;;;;5057121;28;20036;-73
2021/09/30 09:52:57;;;;;;;2.33;0.45;;;15.10;94.80;;;;;;5057070;28;20511;-75
2021/09/30 09:55:30;;;;;;;1.38;0.47;;;15.10;95.10;;;;;;5059240;28;20023;-74
2021/09/30 09:58:07;;;;;;;1.73;0.63;;;15.10;94.20;;;;;;5057592;28;20109;-75
2021/09/30 10:00:41;;;;;;;4.10;0.65;;;15.10;94.60;;;;;;5064869;28;20032;-72
2021/09/30 10:03:14;;;;;;;2.55;0.70;;;15.20;94.90;;;;;;5072694;28;20051;-73
2021/09/30 10:05:40;;;;;;;2.35;1.00;;;15.20;93.90;;;;;;5074159;28;20029;-73
2021/09/30 10:08:07;;;;;;;0.90;0.47;;;15.40;94.70;;;;;;5062756;28;20048;-73
2021/09/30 10:10:33;;;;;;;4.25;0.70;;;15.50;94.40;;;;;;5057629;28;20028;-73
2021/09/30 10:12:59;;;;;;;3.28;0.45;;;15.40;94.70;;;;;;5055087;28;20583;-74
2021/09/30 10:15:25;;;;;;;0.98;0.50;;;15.30;94.30;;;;;;5056633;28;20041;-74
2021/09/30 10:17:50;;;;;;;1.77;1.02;;;15.00;94.60;;;;;;5055852;28;20374;-74
2021/09/30 10:20:16;;;;;;;4.65;0.70;;;15.00;95.80;;;;;;5055966;28;20052;-74
2021/09/30 10:22:49;;;;;;;3.03;1.05;;;15.10;95.80;;;;;;5056849;28;20052;-73
2021/09/30 10:25:16;;;;;;;5.25;1.05;;;15.40;95.90;;;;;;5054717;28;20032;-73
2021/09/30 10:27:42;;;;;;;1.05;0.57;;;15.60;95.10;;;;;;5055606;28;20040;-73
2021/09/30 10:30:31;;;;;;;3.38;1.38;;;16.00;94.60;;;;;;5057469;28;20025;-73
2021/09/30 10:32:57;;;;;;;1.83;0.70;;;16.10;94.00;;;;;;5057028;28;20021;-73
2021/09/30 10:35:45;;;;;;;4.72;0.70;;;16.10;94.20;;;;;;5055095;28;20053;-74
2021/09/30 10:38:33;;;;;;;4.22;1.02;;;16.00;94.20;;;;;;5057576;28;20040;-74
2021/09/30 10:41:05;;;;;;;3.33;0.77;;;16.10;94.50;;;;;;5056473;28;20079;-75
2021/09/30 10:43:35;;;;;;;4.25;1.45;;;16.10;93.20;;;;;;5054616;28;20573;-74
2021/09/30 10:46:01;;;;;;;1.15;0.40;;;16.00;93.00;;;;;;5056258;28;20443;-73
2021/09/30 10:48:27;;;;;;;1.88;0.85;;;15.90;93.40;;;;;;5055343;28;20090;-73
2021/09/30 10:50:59;;;;;;;0.77;0.28;;;16.10;91.90;;;;;;5054036;28;20108;-73
2021/09/30 10:53:47;;;;;;;1.25;0.47;;;16.00;90.30;;;;;;5055137;28;20021;-75
2021/09/30 10:56:27;;;;;;;0.90;0.50;;;16.10;90.00;;;;;;5052798;28;20029;-73
2021/09/30 10:59:15;;;;;;;2.63;0.68;;;15.90;88.70;;;;;;5055649;28;20043;-74
2021/09/30 11:01:47;;;;;;;0.82;0.47;;;15.70;90.00;;;;;;5055705;28;20052;-74
2021/09/30 11:04:14;;;;;;;1.75;0.40;;;15.80;91.30;;;;;;5056576;28;20388;-74
2021/09/30 11:06:40;;;;;;;1.15;0.40;;;15.90;87.80;;;;;;5060276;28;20056;-73
2021/09/30 11:09:11;;;;;;;0.77;0.40;;;15.80;87.10;;;;;;5068294;28;20025;-73
2021/09/30 11:11:37;;;;;;;0.73;0.47;;;15.90;88.40;;;;;;5066582;28;20025;-75
2021/09/30 11:14:03;;;;;;;2.15;0.80;;;16.10;90.60;;;;;;5060299;28;20029;-73
2021/09/30 11:16:37;;;;;;;2.80;1.13;;;16.20;91.00;;;;;;5063897;28;20024;-74
2021/09/30 11:19:04;;;;;;;1.95;0.80;;;16.20;91.70;;;;;;5062809;28;20025;-73
2021/09/30 11:21:30;;;;;;;1.02;0.40;;;16.20;91.40;;;;;;5060133;28;20033;-73
2021/09/30 11:24:04;;;;;;;3.13;0.35;;;16.20;91.20;;;;;;5062120;28;20051;-73
2021/09/30 11:26:32;;;;;;;2.78;0.50;;;16.50;90.20;;;;;;5061431;28;20017;-75
2021/09/30 11:29:28;;;;;;;0.88;0.50;;;16.50;90.40;;;;;;5059398;28;20029;-72
2021/09/30 11:31:53;;;;;;;3.15;0.32;;;17.00;90.30;;;;;;5056625;28;20037;-74
2021/09/30 11:34:28;;;;;;;0.88;0.38;;;16.90;86.20;;;;;;5058735;28;20040;-75
2021/09/30 11:36:56;;;;;;;3.80;1.00;;;17.10;88.30;;;;;;5059548;28;20032;-72
2021/09/30 11:39:29;;;;;;;1.48;0.30;;;16.80;89.40;;;;;;5059173;28;20029;-73
2021/09/30 11:41:55;;;;;;;3.25;0.70;;;16.80;89.10;;;;;;5058734;28;20056;-72
2021/09/30 11:44:20;;;;;;;2.13;0.60;;;16.80;88.10;;;;;;5058178;28;20111;-75
2021/09/30 11:46:51;;;;;;;0.98;0.40;;;16.70;89.90;;;;;;5057959;28;20020;-74
2021/09/30 11:49:18;;;;;;;1.15;0.30;;;16.60;89.20;;;;;;5057580;28;20569;-73
2021/09/30 11:51:46;;;;;;;2.33;0.57;;;16.60;89.60;;;;;;5057769;28;20090;-73
2021/09/30 11:54:17;;;;;;;2.53;0.50;;;16.70;88.90;;;;;;5059336;28;20021;-73
2021/09/30 11:56:45;;;;;;;2.17;0.50;;;16.50;88.70;;;;;;5058586;28;20025;-73
2021/09/30 11:59:10;;;;;;;1.02;0.50;;;16.50;88.50;;;;;;5058755;28;20396;-73
2021/09/30 12:01:44;;;;;;;0.52;0.40;;;16.20;88.40;;;;;;5058741;28;20142;-73
2021/09/30 12:04:13;;;;;;;3.65;0.88;;;16.10;90.00;;;;;;5059732;28;20057;-74
2021/09/30 12:06:43;;;;;;;2.42;0.45;;;16.00;90.20;;;;;;5059098;28;20092;-74
2021/09/30 12:09:11;;;;;;;5.38;1.30;;;15.90;89.60;;;;;;5058942;28;20028;-73
2021/09/30 12:12:03;;;;;;;2.60;0.40;;;16.00;89.90;;;;;;5059282;28;20025;-73
2021/09/30 12:14:38;;;;;;;2.30;0.60;;;16.00;90.20;;;;;;5059369;28;20040;-73
2021/09/30 12:17:07;;;;;;;1.05;0.40;;;16.00;90.10;;;;;;5058060;28;20028;-73
2021/09/30 12:19:37;;;;;;;12.10;2.95;;;16.10;90.70;;;;;;5059596;28;20028;-72
2021/09/30 12:22:08;;;;;;;4.38;1.42;;;16.30;90.10;;;;;;5059930;28;20033;-73
2021/09/30 12:24:34;;;;;;;1.25;0.65;;;16.40;90.10;;;;;;5061735;28;20075;-74
2021/09/30 12:26:59;;;;;;;6.68;3.50;;;16.30;88.90;;;;;;5061048;28;20037;-74
2021/09/30 12:29:26;;;;;;;22.92;7.00;;;16.20;89.70;;;;;;5059247;28;20021;-73
2021/09/30 12:32:06;;;;;;;1.38;0.52;;;16.20;88.50;;;;;;5059596;28;20025;-74
2021/09/30 12:34:32;;;;;;;1.35;0.55;;;16.20;87.90;;;;;;5060891;28;20056;-74
2021/09/30 12:36:58;;;;;;;1.92;0.80;;;16.00;88.20;;;;;;5059638;28;20029;-74
2021/09/30 12:39:29;;;;;;;1.92;0.63;;;16.00;90.10;;;;;;5058541;28;20029;-73
2021/09/30 12:41:55;;;;;;;;;;;16.10;89.80;;;;;;5059196;28;20040;-74
2021/09/30 12:44:20;;;;;;;2.97;0.55;;;15.80;87.40;;;;;;5060300;28;20014;-73
2021/09/30 12:46:52;;;;;;;2.25;0.73;;;15.90;87.30;;;;;;5060429;28;20025;-73
2021/09/30 12:49:19;;;;;;;0.80;0.55;;;15.90;89.50;;;;;;5061741;28;20031;-74
2021/09/30 12:51:45;;;;;;;1.30;0.82;;;16.10;89.30;;;;;;5061438;28;20021;-75
2021/09/30 12:54:11;;;;;;;2.47;0.55;;;16.30;89.00;;;;;;5058108;28;20028;-73
2021/09/30 12:56:37;;;;;;;1.95;0.40;;;16.20;89.00;;;;;;5058940;28;20032;-74
2021/09/30 12:59:14;;;;;;;1.55;0.40;;;16.20;89.00;;;;;;5060309;28;20025;-74
2021/09/30 13:01:42;;;;;;;1.13;0.45;;;16.00;88.00;;;;;;5058642;28;20139;-73
2021/09/30 13:04:25;;;;;;;3.10;0.68;;;15.90;89.00;;;;;;5060491;28;20029;-75
2021/09/30 13:07:01;;;;;;;0.82;0.40;;;16.00;88.70;;;;;;5061056;28;20025;-73
2021/09/30 13:09:31;;;;;;;1.40;0.40;;;16.00;89.90;;;;;;5061081;28;20037;-74
2021/09/30 13:12:04;;;;;;;0.88;0.40;;;16.00;89.90;;;;;;5059411;28;20033;-75
2021/09/30 13:14:45;;;;;;;1.48;0.45;;;16.10;89.20;;;;;;5060827;28;20108;-74
2021/09/30 13:17:19;;;;;;;1.33;0.45;;;16.10;89.90;;;;;;5059971;28;20056;-73
2021/09/30 13:19:48;;;;;;;2.17;0.80;;;16.20;90.30;;;;;;5058974;28;20528;-73
2021/09/30 13:22:16;;;;;;;1.77;0.70;;;16.20;90.30;;;;;;5058358;28;20028;-74
2021/09/30 13:24:43;;;;;;;6.30;0.50;;;16.30;90.10;;;;;;5058074;28;20028;-73
2021/09/30 13:27:11;;;;;;;2.20;0.50;;;16.30;89.70;;;;;;5059032;28;20044;-74
2021/09/30 13:29:37;;;;;;;2.65;0.50;;;16.30;89.20;;;;;;5058220;28;20021;-73
2021/09/30 13:32:03;;;;;;;1.15;0.47;;;16.30;88.40;;;;;;5057351;28;20477;-73
2021/09/30 13:34:29;;;;;;;1.48;0.50;;;16.50;88.50;;;;;;5056613;28;20112;-74
2021/09/30 13:36:54;;;;;;;5.68;0.82;;;16.60;88.90;;;;;;5058809;28;20110;-73
2021/09/30 13:39:20;;;;;;;1.85;0.50;;;16.30;87.90;;;;;;5058433;28;20051;-73
2021/09/30 13:41:46;;;;;;;1.23;0.30;;;16.30;88.40;;;;;;5064746;28;20032;-74
2021/09/30 13:44:12;;;;;;;1.77;0.52;;;16.30;88.00;;;;;;5060814;28;20029;-73
2021/09/30 13:46:37;;;;;;;1.25;0.50;;;16.30;87.70;;;;;;5057747;28;20512;-74
2021/09/30 13:49:03;;;;;;;2.95;0.40;;;16.30;88.70;;;;;;5057834;28;20036;-74
2021/09/30 13:51:30;;;;;;;1.48;0.50;;;16.20;88.40;;;;;;5058559;28;20021;-74
2021/09/30 13:53:57;;;;;;;2.55;0.50;;;16.30;89.60;;;;;;5061137;28;20052;-73
2021/09/30 13:56:24;;;;;;;1.23;0.52;;;16.30;88.70;;;;;;5058599;28;20040;-73
2021/09/30 13:58:49;;;;;;;0.90;0.38;;;16.40;87.50;;;;;;5058988;28;20104;-75
2021/09/30 14:01:15;;;;;;;0.73;0.30;;;16.40;86.90;;;;;;5057395;28;20520;-76
2021/09/30 14:03:41;;;;;;;1.80;0.32;;;16.50;86.80;;;;;;5057931;28;20090;-73
2021/09/30 14:06:07;;;;;;;1.52;0.50;;;16.50;86.60;;;;;;5057051;28;20069;-74
2021/09/30 14:08:33;;;;;;;1.33;0.68;;;16.50;86.20;;;;;;5056775;28;20036;-73
2021/09/30 14:10:59;;;;;;;1.48;0.70;;;16.40;86.50;;;;;;5062316;28;20025;-73
2021/09/30 14:13:25;;;;;;;1.17;0.30;;;16.70;85.70;;;;;;5069391;28;20044;-73
2021/09/30 14:15:51;;;;;;;4.72;1.20;;;16.80;85.70;;;;;;5068607;28;20025;-74
2021/09/30 14:18:16;;;;;;;1.20;0.57;;;16.70;86.60;;;;;;5065874;28;20550;-74
2021/09/30 14:20:42;;;;;;;3.65;0.85;;;16.70;87.30;;;;;;5063410;28;20040;-74
2021/09/30 14:23:08;;;;;;;2.55;0.88;;;16.30;87.30;;;;;;5064230;28;20424;-73
2021/09/30 14:25:33;;;;;;;3.53;0.70;;;16.30;87.70;;;;;;5057735;28;20480;-72
2021/09/30 14:27:59;;;;;;;1.67;0.50;;;16.50;88.00;;;;;;5054695;28;20017;-74
2021/09/30 14:30:24;;;;;;;1.90;0.80;;;16.60;87.10;;;;;;5056874;28;20037;-73
2021/09/30 14:32:51;;;;;;;2.20;0.60;;;16.70;85.70;;;;;;5056629;28;20033;-74
2021/09/30 14:35:18;;;;;;;0.35;0.32;;;16.50;87.40;;;;;;5054458;28;20104;-75
2021/09/30 14:37:47;;;;;;;1.95;0.40;;;16.60;85.90;;;;;;5053265;28;20025;-73
2021/09/30 14:40:13;;;;;;;0.82;0.47;;;16.30;86.80;;;;;;5051454;28;20075;-73
2021/09/30 14:42:40;;;;;;;1.15;0.40;;;16.00;87.90;;;;;;5051710;28;20140;-73
2021/09/30 14:45:05;;;;;;;1.30;0.40;;;16.10;87.40;;;;;;5052385;28;20396;-74
2021/09/30 14:47:31;;;;;;;1.20;0.70;;;16.10;86.40;;;;;;5052970;28;20029;-73
2021/09/30 14:49:57;;;;;;;0.95;0.40;;;16.20;87.20;;;;;;5052538;28;20075;-73
2021/09/30 14:52:22;;;;;;;2.00;0.55;;;16.30;86.60;;;;;;5052566;28;20059;-74
2021/09/30 14:54:49;;;;;;;2.40;0.50;;;16.50;85.40;;;;;;5054715;28;20017;-73
2021/09/30 14:57:16;;;;;;;0.47;0.22;;;16.50;85.40;;;;;;5056485;28;20021;-73
2021/09/30 14:59:42;;;;;;;2.95;0.68;;;16.30;85.40;;;;;;5056507;28;20100;-75
2021/09/30 15:02:08;;;;;;;0.85;0.40;;;16.50;85.40;;;;;;5056781;28;20025;-74
2021/09/30 15:04:34;;;;;;;1.70;0.60;;;16.50;85.60;;;;;;5056617;28;20036;-74
2021/09/30 15:06:59;;;;;;;1.85;1.35;;;16.30;85.40;;;;;;5056739;28;20025;-73
2021/09/30 15:09:25;;;;;;;1.52;0.65;;;16.10;86.90;;;;;;5056658;28;20481;-74
2021/09/30 15:11:51;;;;;;;1.10;0.40;;;16.40;85.70;;;;;;5055023;28;20477;-73
2021/09/30 15:14:17;;;;;;;1.42;0.38;;;16.40;85.50;;;;;;5040038;22;1082228;-73
2021/09/30 15:17:11;;;;;;;7.88;5.18;;;16.40;85.10;;;;;;5056128;28;20021;-74
2021/09/30 15:19:47;;;;;;;3.10;1.23;;;16.30;86.60;;;;;;5055756;28;20120;-74
2021/09/30 15:22:13;;;;;;;1.73;0.35;;;16.10;86.90;;;;;;5056558;28;20028;-75
2021/09/30 15:24:39;;;;;;;1.10;0.68;;;16.00;86.10;;;;;;5056845;28;20031;-73
2021/09/30 15:27:05;;;;;;;2.95;0.95;;;15.90;86.80;;;;;;5056615;28;20033;-73
2021/09/30 15:29:31;;;;;;;2.15;0.40;;;15.80;86.90;;;;;;5055221;28;20033;-74
2021/09/30 15:31:57;;;;;;;1.70;0.60;;;16.00;87.20;;;;;;5056498;28;20024;-74
2021/09/30 15:34:22;;;;;;;0.93;0.63;;;16.00;86.50;;;;;;5056494;28;20473;-75
2021/09/30 15:36:48;;;;;;;2.33;0.70;;;16.00;86.60;;;;;;5054711;28;20472;-75
2021/09/30 15:39:13;;;;;;;1.92;0.68;;;16.00;87.50;;;;;;5056250;28;20150;-73
2021/09/30 15:41:40;;;;;;;0.80;0.40;;;15.90;88.00;;;;;;5056576;28;20025;-73
2021/09/30 15:44:06;;;;;;;2.25;0.68;;;16.00;87.20;;;;;;5058733;28;20036;-73
2021/09/30 15:46:32;;;;;;;3.00;1.15;;;15.90;88.00;;;;;;5057280;28;20147;-73
2021/09/30 15:48:57;;;;;;;1.63;0.45;;;15.80;89.80;;;;;;5056757;28;20566;-73
2021/09/30 15:51:23;;;;;;;2.33;0.70;;;15.70;88.20;;;;;;5055678;28;20017;-73
2021/09/30 15:53:49;;;;;;;2.85;0.70;;;15.70;88.00;;;;;;5060212;28;20025;-73